createdAt,value
2023-03-19T00:00:50.618Z,90.74
2023-03-19T00:03:17.431Z,90.15
2023-03-19T00:05:50.803Z,90.08
2023-03-19T00:08:17.456Z,89.74
2023-03-19T00:10:44.095Z,90.08
2023-03-19T00:13:10.763Z,90.65
2023-03-19T00:15:37.726Z,91.16
2023-03-19T00:18:06.355Z,90.89
2023-03-19T00:20:33.051Z,90.38
2023-03-19T00:22:59.992Z,89.99
2023-03-19T00:25:26.824Z,89.85
2023-03-19T00:27:55.263Z,90.89
2023-03-19T00:30:22.808Z,90.91
2023-03-19T00:32:49.462Z,90.37
2023-03-19T00:35:16.292Z,90.00
2023-03-19T00:37:43.376Z,90.74
2023-03-19T00:40:10.526Z,94.37
2023-03-19T00:42:37.537Z,98.07
2023-03-19T00:45:04.338Z,97.62
2023-03-19T00:47:30.953Z,97.05
2023-03-19T00:49:57.564Z,96.37
2023-03-19T00:52:24.384Z,95.15
2023-03-19T00:54:51.260Z,94.57
2023-03-19T00:57:17.873Z,94.45
2023-03-19T00:59:44.536Z,94.29
2023-03-19T01:02:11.284Z,93.76
2023-03-19T01:04:38.105Z,92.85
2023-03-19T01:07:04.903Z,92.14
2023-03-19T01:09:31.627Z,92.04
2023-03-19T01:11:58.411Z,92.00
2023-03-19T01:14:25.139Z,92.56
2023-03-19T01:16:52.205Z,93.02
2023-03-19T01:19:20.212Z,93.45
2023-03-19T01:21:47.189Z,91.41
2023-03-19T01:24:13.909Z,90.70
2023-03-19T01:26:41.077Z,89.53
2023-03-19T01:29:08.352Z,89.23
2023-03-19T01:31:35.879Z,89.89
2023-03-19T01:34:02.885Z,88.83
2023-03-19T01:36:29.646Z,88.55
2023-03-19T01:38:56.530Z,88.60
2023-03-19T01:41:23.946Z,88.70
2023-03-19T01:43:50.819Z,89.56
2023-03-19T01:46:17.487Z,90.03
2023-03-19T01:48:51.889Z,90.09
2023-03-19T01:51:21.549Z,91.41
2023-03-19T01:53:50.638Z,91.35
2023-03-19T01:56:22.823Z,91.44
2023-03-19T01:58:51.514Z,91.65
2023-03-19T02:01:19.104Z,91.78
2023-03-19T02:03:46.815Z,91.18
2023-03-19T02:06:14.087Z,91.43
2023-03-19T02:08:41.917Z,89.92
2023-03-19T02:11:13.482Z,89.61
2023-03-19T02:13:40.142Z,89.56
2023-03-19T02:16:07.176Z,88.78
2023-03-19T02:18:33.933Z,88.49
2023-03-19T02:21:12.801Z,89.21
2023-03-19T02:23:57.839Z,89.00
2023-03-19T02:26:26.757Z,88.47
2023-03-19T02:28:53.926Z,88.32
2023-03-19T02:31:21.136Z,88.16
2023-03-19T02:34:00.881Z,88.16
2023-03-19T02:36:31.701Z,87.82
2023-03-19T02:39:01.705Z,88.66
2023-03-19T02:41:29.202Z,89.31
2023-03-19T02:43:56.293Z,89.44
2023-03-19T02:46:23.038Z,88.58
2023-03-19T02:48:49.742Z,88.71
2023-03-19T02:51:16.521Z,88.64
2023-03-19T02:53:43.167Z,88.56
2023-03-19T02:56:09.912Z,89.41
2023-03-19T02:58:36.548Z,90.10
2023-03-19T03:01:03.334Z,90.05
2023-03-19T03:03:30.616Z,90.53
2023-03-19T03:05:57.293Z,90.72
2023-03-19T03:08:23.958Z,90.33
2023-03-19T03:10:50.756Z,90.19
2023-03-19T03:13:17.469Z,90.41
2023-03-19T03:15:44.258Z,91.18
2023-03-19T03:18:11.297Z,90.76
2023-03-19T03:20:37.972Z,91.83
2023-03-19T03:23:04.659Z,91.63
2023-03-19T03:25:31.373Z,91.74
2023-03-19T03:27:58.129Z,91.71
2023-03-19T03:30:25.403Z,91.43
2023-03-19T03:32:52.281Z,91.66
2023-03-19T03:35:22.471Z,91.70
2023-03-19T03:37:49.747Z,91.22
2023-03-19T03:40:16.575Z,91.50
2023-03-19T03:42:43.809Z,91.22
2023-03-19T03:45:11.222Z,91.62
2023-03-19T03:47:37.969Z,91.33
2023-03-19T03:50:05.513Z,91.61
2023-03-19T03:52:34.427Z,91.74
2023-03-19T03:55:01.312Z,91.16
2023-03-19T03:57:28.086Z,91.22
2023-03-19T03:59:54.992Z,90.67
2023-03-19T04:02:22.736Z,90.87
2023-03-19T04:04:49.482Z,91.38
2023-03-19T04:07:16.198Z,91.60
2023-03-19T04:09:42.965Z,91.71
2023-03-19T04:12:09.911Z,91.75
2023-03-19T04:14:36.926Z,91.47
2023-03-19T04:17:03.666Z,91.66
2023-03-19T04:19:30.306Z,91.80
2023-03-19T04:21:56.943Z,91.40
2023-03-19T04:24:23.663Z,90.76
2023-03-19T04:26:50.422Z,90.50
2023-03-19T04:29:18.740Z,89.66
2023-03-19T04:31:46.017Z,89.82
2023-03-19T04:34:13.151Z,90.49
2023-03-19T04:36:39.894Z,90.60
2023-03-19T04:39:06.694Z,90.80
2023-03-19T04:41:33.448Z,89.48
2023-03-19T04:44:00.132Z,89.37
2023-03-19T04:46:27.003Z,89.12
2023-03-19T04:48:53.718Z,88.23
2023-03-19T04:51:21.847Z,87.33
2023-03-19T04:53:49.174Z,86.77
2023-03-19T04:56:19.031Z,86.31
2023-03-19T04:58:46.359Z,86.04
2023-03-19T05:01:13.358Z,85.17
2023-03-19T05:03:40.214Z,85.06
2023-03-19T05:06:07.070Z,84.64
2023-03-19T05:08:34.114Z,84.67
2023-03-19T05:11:01.032Z,84.75
2023-03-19T05:13:27.661Z,85.10
2023-03-19T05:15:55.743Z,85.37
2023-03-19T05:18:22.537Z,85.17
2023-03-19T05:20:49.632Z,85.21
2023-03-19T05:23:16.247Z,85.90
2023-03-19T05:25:43.041Z,85.63
2023-03-19T05:28:09.807Z,86.02
2023-03-19T05:30:36.576Z,85.82
2023-03-19T05:33:03.762Z,86.60
2023-03-19T05:35:30.810Z,86.60
2023-03-19T05:37:57.605Z,86.08
2023-03-19T05:40:24.789Z,86.01
2023-03-19T05:42:51.485Z,86.27
2023-03-19T05:45:18.226Z,86.57
2023-03-19T05:47:47.201Z,86.25
2023-03-19T05:50:13.862Z,86.55
2023-03-19T05:52:40.683Z,87.09
2023-03-19T05:55:08.494Z,87.42
2023-03-19T05:57:35.540Z,87.36
2023-03-19T06:00:02.444Z,87.19
2023-03-19T06:02:36.637Z,87.10
2023-03-19T06:05:06.520Z,86.76
2023-03-19T06:07:33.200Z,86.86
2023-03-19T06:09:59.912Z,87.43
2023-03-19T06:12:30.197Z,87.08
2023-03-19T06:14:57.302Z,86.88
2023-03-19T06:17:24.101Z,86.74
2023-03-19T06:19:50.963Z,87.29
2023-03-19T06:22:17.722Z,87.34
2023-03-19T06:24:44.450Z,86.74
2023-03-19T06:27:11.341Z,86.38
2023-03-19T06:29:38.088Z,86.46
2023-03-19T06:32:04.964Z,86.34
2023-03-19T06:34:31.637Z,87.27
2023-03-19T06:36:58.325Z,87.12
2023-03-19T06:39:25.074Z,86.88
2023-03-19T06:41:52.044Z,86.28
2023-03-19T06:44:18.790Z,85.73
2023-03-19T06:46:45.691Z,86.41
2023-03-19T06:49:12.349Z,86.87
2023-03-19T06:51:39.161Z,86.98
2023-03-19T06:54:06.284Z,87.52
2023-03-19T06:56:33.026Z,86.28
2023-03-19T06:58:59.665Z,85.90
2023-03-19T07:01:26.582Z,85.50
2023-03-19T07:03:53.509Z,86.53
2023-03-19T07:06:20.189Z,85.87
2023-03-19T07:08:46.838Z,85.07
2023-03-19T07:11:14.211Z,86.17
2023-03-19T07:13:41.339Z,86.33
2023-03-19T07:16:08.860Z,85.63
2023-03-19T07:18:36.145Z,85.07
2023-03-19T07:21:03.318Z,84.10
2023-03-19T07:23:30.198Z,84.03
2023-03-19T07:25:57.083Z,83.32
2023-03-19T07:28:23.889Z,82.95
2023-03-19T07:30:54.099Z,82.40
2023-03-19T07:33:22.162Z,82.95
2023-03-19T07:35:49.093Z,82.61
2023-03-19T07:38:15.853Z,82.14
2023-03-19T07:40:51.364Z,81.95
2023-03-19T07:43:26.122Z,81.40
2023-03-19T07:45:52.878Z,81.75
2023-03-19T07:48:19.619Z,81.67
2023-03-19T07:50:46.524Z,80.71
2023-03-19T07:53:13.208Z,79.71
2023-03-19T07:55:39.876Z,80.82
2023-03-19T07:58:06.549Z,80.31
2023-03-19T08:00:33.766Z,80.42
2023-03-19T08:03:00.593Z,80.72
2023-03-19T08:05:27.523Z,80.16
2023-03-19T08:07:54.171Z,79.37
2023-03-19T08:10:21.022Z,79.78
2023-03-19T08:12:48.123Z,80.56
2023-03-19T08:15:14.843Z,79.91
2023-03-19T08:17:41.580Z,79.42
2023-03-19T08:20:11.526Z,79.46
2023-03-19T08:22:39.591Z,79.97
2023-03-19T08:25:07.099Z,77.71
2023-03-19T08:27:35.841Z,76.96
2023-03-19T08:30:04.294Z,76.94
2023-03-19T08:32:35.338Z,77.88
2023-03-19T08:35:02.437Z,77.91
2023-03-19T08:37:29.389Z,75.81
2023-03-19T08:39:56.169Z,76.18
2023-03-19T08:42:25.797Z,75.85
2023-03-19T08:44:52.523Z,76.21
2023-03-19T08:47:19.291Z,76.03
2023-03-19T08:49:46.350Z,76.47
2023-03-19T08:52:13.426Z,76.13
2023-03-19T08:54:40.182Z,75.64
2023-03-19T08:57:07.033Z,75.17
2023-03-19T08:59:34.384Z,74.52
2023-03-19T09:02:01.813Z,74.17
2023-03-19T09:04:28.743Z,74.02
2023-03-19T09:06:56.138Z,74.19
2023-03-19T09:09:24.070Z,74.67
2023-03-19T09:11:51.088Z,73.09
2023-03-19T09:14:20.094Z,73.67
2023-03-19T09:16:46.964Z,73.30
2023-03-19T09:19:13.660Z,73.68
2023-03-19T09:21:40.289Z,73.60
2023-03-19T09:24:07.465Z,71.89
2023-03-19T09:26:34.344Z,72.20
2023-03-19T09:29:01.735Z,72.66
2023-03-19T09:31:29.918Z,72.76
2023-03-19T09:33:57.126Z,71.86
2023-03-19T09:36:24.048Z,70.96
2023-03-19T09:38:50.953Z,70.65
2023-03-19T09:41:17.742Z,70.71
2023-03-19T09:44:23.500Z,70.92
2023-03-19T09:46:56.903Z,70.45
2023-03-19T09:49:23.944Z,69.71
2023-03-19T09:51:55.143Z,70.28
2023-03-19T09:54:28.281Z,70.34
2023-03-19T09:56:56.054Z,69.96
2023-03-19T09:59:24.103Z,69.12
2023-03-19T10:01:54.871Z,69.14
2023-03-19T10:04:54.083Z,68.62
2023-03-19T10:07:20.816Z,68.28
2023-03-19T10:10:17.074Z,68.18
2023-03-19T10:12:57.086Z,67.36
2023-03-19T10:15:31.393Z,69.24
2023-03-19T10:18:11.055Z,67.62
2023-03-19T10:20:47.048Z,67.10
2023-03-19T10:23:16.538Z,67.03
2023-03-19T10:25:45.030Z,67.84
2023-03-19T10:28:16.204Z,66.47
2023-03-19T10:30:44.552Z,66.83
2023-03-19T10:33:17.483Z,67.58
2023-03-19T10:35:45.642Z,67.87
2023-03-19T10:38:23.298Z,65.61
2023-03-19T10:40:57.080Z,65.77
2023-03-19T10:43:26.233Z,65.67
2023-03-19T10:45:54.422Z,65.00
2023-03-19T10:48:26.965Z,65.55
2023-03-19T10:50:59.200Z,65.18
2023-03-19T10:53:25.906Z,65.58
2023-03-19T10:55:56.741Z,65.03
2023-03-19T10:58:25.512Z,64.08
2023-03-19T11:01:04.271Z,64.40
2023-03-19T11:03:32.719Z,64.61
2023-03-19T11:06:18.400Z,64.84
2023-03-19T11:08:51.589Z,66.84
2023-03-19T11:11:26.485Z,66.04
2023-03-19T11:13:53.331Z,66.43
2023-03-19T11:16:23.507Z,65.60
2023-03-19T11:18:51.487Z,65.75
2023-03-19T11:21:33.472Z,66.15
2023-03-19T11:24:01.536Z,66.33
2023-03-19T11:26:28.980Z,65.03
2023-03-19T11:29:02.513Z,63.87
2023-03-19T11:32:20.309Z,62.29
2023-03-19T11:35:00.049Z,63.43
2023-03-19T11:37:47.113Z,63.57
2023-03-19T11:40:26.077Z,62.81
2023-03-19T11:43:02.123Z,63.70
2023-03-19T11:45:42.241Z,63.25
2023-03-19T11:48:29.349Z,63.29
2023-03-19T11:50:56.115Z,64.74
2023-03-19T11:53:26.042Z,64.34
2023-03-19T11:56:11.510Z,63.05
2023-03-19T11:58:42.096Z,61.89
2023-03-19T12:01:27.568Z,63.08
2023-03-19T12:04:08.288Z,63.97
2023-03-19T12:06:51.506Z,61.93
2023-03-19T12:09:24.359Z,64.36
2023-03-19T12:11:58.829Z,62.21
2023-03-19T12:14:31.478Z,61.50
2023-03-19T12:17:04.552Z,62.62
2023-03-19T12:19:43.267Z,62.17
2023-03-19T12:22:09.955Z,61.96
2023-03-19T12:24:38.161Z,61.50
2023-03-19T12:27:20.649Z,62.55
2023-03-19T12:29:57.211Z,63.48
2023-03-19T12:32:39.804Z,62.01
2023-03-19T12:35:10.745Z,61.74
2023-03-19T12:37:40.933Z,61.18
2023-03-19T12:40:19.872Z,62.06
2023-03-19T12:42:46.864Z,61.18
2023-03-19T12:45:26.901Z,60.92
2023-03-19T12:47:58.842Z,60.23
2023-03-19T12:50:26.549Z,59.10
2023-03-19T12:52:58.195Z,59.36
2023-03-19T12:55:36.593Z,59.75
2023-03-19T12:58:12.313Z,61.16
2023-03-19T13:01:01.492Z,61.56
2023-03-19T13:03:46.832Z,60.97
2023-03-19T13:06:19.886Z,62.26
2023-03-19T13:08:53.143Z,69.87
2023-03-19T13:11:35.557Z,72.42
2023-03-19T13:14:07.075Z,66.43
2023-03-19T13:16:39.619Z,61.01
2023-03-19T13:19:06.782Z,63.15
2023-03-19T13:21:35.976Z,60.73
2023-03-19T13:24:10.121Z,59.14
2023-03-19T13:26:37.516Z,58.04
2023-03-19T13:29:09.542Z,57.68
2023-03-19T13:31:38.306Z,58.40
2023-03-19T13:34:21.666Z,58.06
2023-03-19T13:36:53.103Z,59.35
2023-03-19T13:39:21.324Z,60.39
2023-03-19T13:41:48.812Z,59.95
2023-03-19T13:44:29.489Z,61.22
2023-03-19T13:46:56.261Z,61.02
2023-03-19T13:49:28.895Z,59.47
2023-03-19T13:51:56.936Z,59.16
2023-03-19T13:54:32.870Z,58.17
2023-03-19T13:57:03.591Z,59.21
2023-03-19T13:59:34.652Z,57.80
2023-03-19T14:02:02.564Z,55.96
2023-03-19T14:04:33.439Z,56.25
2023-03-19T14:07:09.586Z,56.19
2023-03-19T14:09:48.819Z,55.56
2023-03-19T14:12:15.477Z,56.21
2023-03-19T14:14:47.586Z,55.14
2023-03-19T14:17:19.862Z,56.12
2023-03-19T14:19:46.947Z,56.62
2023-03-19T14:22:16.821Z,56.71
2023-03-19T14:24:57.019Z,55.84
2023-03-19T14:27:36.290Z,55.87
2023-03-19T14:30:10.657Z,55.50
2023-03-19T14:32:42.784Z,55.83
2023-03-19T14:35:14.592Z,56.02
2023-03-19T14:37:51.608Z,54.82
2023-03-19T14:40:18.423Z,54.55
2023-03-19T14:42:51.467Z,54.86
2023-03-19T14:45:18.286Z,54.92
2023-03-19T14:47:44.950Z,54.76
2023-03-19T14:50:11.649Z,55.52
2023-03-19T14:52:49.867Z,55.06
2023-03-19T14:55:17.754Z,54.39
2023-03-19T14:57:44.573Z,56.80
2023-03-19T15:00:17.739Z,57.25
2023-03-19T15:02:44.715Z,57.79
2023-03-19T15:05:33.324Z,57.66
2023-03-19T15:08:10.850Z,58.71
2023-03-19T15:10:55.992Z,58.41
2023-03-19T15:13:22.653Z,59.09
2023-03-19T15:16:10.663Z,59.49
2023-03-19T15:18:37.903Z,60.10
2023-03-19T15:21:05.565Z,61.16
2023-03-19T15:23:32.885Z,60.03
2023-03-19T15:26:02.127Z,61.19
2023-03-19T15:28:30.537Z,59.89
2023-03-19T15:31:19.527Z,59.44
2023-03-19T15:33:59.872Z,59.52
2023-03-19T15:36:32.019Z,59.17
2023-03-19T15:39:02.917Z,59.36
2023-03-19T15:41:32.333Z,59.76
2023-03-19T15:44:00.066Z,59.58
2023-03-19T15:46:29.871Z,59.58
2023-03-19T15:49:12.335Z,59.01
2023-03-19T15:51:40.277Z,59.29
2023-03-19T15:54:07.687Z,59.04
2023-03-19T15:56:34.746Z,59.47
2023-03-19T15:59:04.447Z,59.89
2023-03-19T16:01:33.514Z,59.00
2023-03-19T16:04:02.065Z,57.93
2023-03-19T16:06:30.957Z,58.54
2023-03-19T16:09:07.539Z,59.03
2023-03-19T16:11:35.753Z,58.75
2023-03-19T16:14:09.585Z,59.10
2023-03-19T16:16:38.965Z,59.08
2023-03-19T16:19:06.215Z,57.29
2023-03-19T16:21:36.453Z,58.56
2023-03-19T16:24:09.027Z,58.63
2023-03-19T16:26:40.378Z,58.10
2023-03-19T16:29:18.099Z,58.07
2023-03-19T16:31:46.399Z,57.75
2023-03-19T16:34:25.634Z,58.77
2023-03-19T16:36:52.351Z,58.41
2023-03-19T16:39:31.406Z,57.85
2023-03-19T16:42:18.529Z,57.94
2023-03-19T16:44:47.323Z,58.83
2023-03-19T16:47:15.868Z,57.42
2023-03-19T16:49:42.944Z,57.23
2023-03-19T16:52:14.353Z,58.12
2023-03-19T16:54:41.233Z,58.10
2023-03-19T16:57:10.061Z,57.70
2023-03-19T16:59:36.834Z,56.53
2023-03-19T17:02:03.562Z,57.84
2023-03-19T17:04:31.262Z,58.39
2023-03-19T17:06:58.028Z,58.37
2023-03-19T17:09:26.655Z,57.53
2023-03-19T17:11:54.096Z,58.28
2023-03-19T17:14:22.159Z,57.81
2023-03-19T17:16:51.256Z,57.98
2023-03-19T17:19:19.731Z,58.57
2023-03-19T17:21:47.439Z,58.45
2023-03-19T17:24:17.104Z,57.82
2023-03-19T17:26:43.993Z,57.14
2023-03-19T17:29:11.088Z,56.82
2023-03-19T17:31:38.057Z,57.25
2023-03-19T17:34:06.196Z,58.84
2023-03-19T17:36:33.300Z,59.20
2023-03-19T17:39:00.013Z,59.67
2023-03-19T17:41:26.859Z,59.87
2023-03-19T17:43:53.582Z,60.65
2023-03-19T17:46:24.794Z,60.07
2023-03-19T17:48:51.979Z,59.29
2023-03-19T17:51:19.003Z,60.27
2023-03-19T17:53:50.437Z,60.72
2023-03-19T17:56:18.262Z,60.53
2023-03-19T17:58:47.173Z,61.36
2023-03-19T18:01:18.034Z,62.17
2023-03-19T18:03:44.779Z,61.97
2023-03-19T18:06:32.738Z,62.33
2023-03-19T18:08:59.511Z,62.65
2023-03-19T18:11:26.492Z,63.67
2023-03-19T18:13:53.385Z,62.82
2023-03-19T18:16:20.129Z,62.73
2023-03-19T18:18:47.004Z,62.65
2023-03-19T18:21:14.673Z,62.58
2023-03-19T18:23:41.565Z,63.05
2023-03-19T18:26:08.546Z,63.02
2023-03-19T18:28:35.400Z,64.27
2023-03-19T18:31:02.250Z,65.06
2023-03-19T18:33:30.040Z,64.02
2023-03-19T18:35:57.967Z,63.87
2023-03-19T18:38:25.822Z,64.54
2023-03-19T18:40:53.194Z,63.78
2023-03-19T18:43:19.877Z,64.07
2023-03-19T18:45:48.583Z,64.03
2023-03-19T18:48:18.058Z,64.64
2023-03-19T18:50:47.199Z,64.04
2023-03-19T18:53:14.113Z,63.94
2023-03-19T18:55:40.909Z,65.20
2023-03-19T18:58:07.679Z,65.18
2023-03-19T19:00:35.418Z,66.82
2023-03-19T19:03:02.993Z,66.03
2023-03-19T19:05:31.387Z,65.13
2023-03-19T19:07:59.046Z,65.48
2023-03-19T19:10:26.394Z,65.38
2023-03-19T19:12:55.397Z,65.00
2023-03-19T19:15:24.273Z,67.05
2023-03-19T19:17:52.365Z,68.99
2023-03-19T19:20:20.172Z,67.58
2023-03-19T19:22:47.477Z,68.50
2023-03-19T19:25:19.766Z,67.32
2023-03-19T19:27:47.379Z,67.56
2023-03-19T19:30:18.613Z,67.30
2023-03-19T19:32:46.208Z,67.53
2023-03-19T19:35:17.587Z,67.64
2023-03-19T19:37:44.414Z,68.37
2023-03-19T19:40:12.738Z,68.08
2023-03-19T19:42:40.620Z,67.57
2023-03-19T19:45:08.215Z,67.79
2023-03-19T19:47:36.007Z,66.67
2023-03-19T19:50:04.380Z,66.91
2023-03-19T19:52:39.152Z,68.08
2023-03-19T19:55:06.170Z,68.27
2023-03-19T19:57:34.323Z,67.39
2023-03-19T20:00:01.055Z,67.44
2023-03-19T20:02:31.513Z,67.06
2023-03-19T20:04:58.628Z,68.04
2023-03-19T20:07:25.435Z,68.21
2023-03-19T20:09:52.225Z,67.16
2023-03-19T20:12:24.135Z,66.82
2023-03-19T20:14:51.439Z,67.38
2023-03-19T20:17:18.977Z,67.55
2023-03-19T20:19:46.941Z,66.92
2023-03-19T20:22:13.712Z,67.52
2023-03-19T20:24:40.818Z,69.07
2023-03-19T20:27:17.532Z,68.44
2023-03-19T20:29:44.571Z,70.52
2023-03-19T20:32:34.551Z,70.64
2023-03-19T20:35:01.480Z,69.41
2023-03-19T20:37:28.410Z,71.11
2023-03-19T20:39:55.154Z,71.85
2023-03-19T20:42:37.425Z,72.93
2023-03-19T20:45:04.460Z,71.53
2023-03-19T20:47:33.261Z,69.93
2023-03-19T20:50:00.424Z,70.96
2023-03-19T20:52:41.500Z,70.49
2023-03-19T20:55:09.135Z,70.65
2023-03-19T20:57:35.982Z,70.12
2023-03-19T21:00:11.628Z,70.50
2023-03-19T21:02:39.256Z,69.98
2023-03-19T21:05:07.896Z,69.25
2023-03-19T21:07:34.770Z,69.34
2023-03-19T21:10:03.818Z,69.20
2023-03-19T21:12:40.104Z,69.37
2023-03-19T21:15:07.307Z,70.39
2023-03-19T21:17:34.627Z,69.60
2023-03-19T21:20:02.310Z,68.40
2023-03-19T21:22:36.708Z,68.56
2023-03-19T21:25:08.145Z,69.20
2023-03-19T21:27:36.743Z,69.72
2023-03-19T21:30:04.621Z,69.65
2023-03-19T21:32:33.780Z,69.37
2023-03-19T21:35:00.697Z,69.22
2023-03-19T21:37:27.701Z,70.00
2023-03-19T21:39:54.402Z,70.87
2023-03-19T21:42:22.739Z,69.64
2023-03-19T21:44:52.545Z,70.67
2023-03-19T21:47:21.857Z,70.93
2023-03-19T21:49:48.969Z,70.98
2023-03-19T21:52:18.854Z,71.83
2023-03-19T21:54:45.877Z,71.02
2023-03-19T21:57:16.744Z,70.70
2023-03-19T21:59:45.479Z,70.50
2023-03-19T22:02:38.260Z,70.62
2023-03-19T22:05:25.666Z,71.38
2023-03-19T22:07:53.310Z,70.85
2023-03-19T22:10:21.228Z,71.46
2023-03-19T22:12:49.587Z,70.60
2023-03-19T22:15:25.705Z,71.92
2023-03-19T22:17:52.439Z,71.60
2023-03-19T22:20:21.245Z,72.07
2023-03-19T22:22:48.148Z,70.88
2023-03-19T22:25:16.170Z,70.78
2023-03-19T22:27:43.828Z,70.72
2023-03-19T22:30:19.010Z,70.52
2023-03-19T22:32:45.842Z,70.74
2023-03-19T22:35:16.842Z,71.24
2023-03-19T22:37:44.113Z,71.26
2023-03-19T22:40:12.697Z,71.06
2023-03-19T22:42:40.302Z,71.57
2023-03-19T22:45:08.452Z,72.19
2023-03-19T22:47:38.599Z,71.81
2023-03-19T22:50:06.908Z,71.47
2023-03-19T22:52:48.568Z,72.23
2023-03-19T22:55:30.148Z,72.53
2023-03-19T22:57:57.376Z,71.64
2023-03-19T23:00:24.172Z,71.52
2023-03-19T23:02:58.015Z,71.89
2023-03-19T23:05:34.527Z,72.28
2023-03-19T23:08:03.657Z,73.45
2023-03-19T23:10:36.445Z,72.78
2023-03-19T23:13:03.666Z,73.00
2023-03-19T23:15:31.697Z,72.54
2023-03-19T23:18:00.198Z,71.96
2023-03-19T23:20:28.284Z,71.35
2023-03-19T23:22:56.096Z,71.98
2023-03-19T23:25:25.443Z,72.40
2023-03-19T23:28:01.739Z,72.61
2023-03-19T23:30:30.710Z,72.89
2023-03-19T23:32:59.257Z,71.84
2023-03-19T23:35:26.853Z,73.66
2023-03-19T23:37:56.717Z,73.08
2023-03-19T23:40:25.862Z,73.15
2023-03-19T23:42:55.729Z,73.05
2023-03-19T23:45:37.055Z,72.04
2023-03-19T23:48:05.527Z,72.66
2023-03-19T23:50:32.456Z,72.61
2023-03-19T23:52:59.631Z,72.78
2023-03-19T23:55:27.920Z,72.64
2023-03-19T23:57:54.966Z,73.82
